Time;durP1;ratioP1;P1;durP2;ratioP2;P2;SDS_P1;SDS_P2;PMS_P1;PMS_P2;Temp;Humidity;BMP_temperature;BMP_pressure;BME280_temperature;BME280_humidity;BME280_pressure;Samples;Min_cycle;Max_cycle;Signal;HPM_P1;HPM_P2
2022/10/10 00:02:06;;;;;;;8.67;6.90;;;;;;;8.73;85.50;101337.22;5029685;28;20044;-83
2022/10/10 00:04:31;;;;;;;9.53;7.30;;;;;;;8.68;85.72;101334.25;5031319;28;20092;-83
2022/10/10 00:06:57;;;;;;;10.87;7.00;;;;;;;8.67;85.72;101329.88;5030658;28;20041;-82
2022/10/10 00:09:22;;;;;;;9.97;6.90;;;;;;;8.67;85.80;101332.56;5031016;28;20071;-83
2022/10/10 00:11:47;;;;;;;12.97;7.00;;;;;;;8.67;85.44;101332.56;4991576;28;20092;-83
2022/10/10 00:14:13;;;;;;;11.17;7.13;;;;;;;8.61;86.21;101323.38;5030822;28;20393;-82
2022/10/10 00:16:38;;;;;;;10.53;6.77;;;;;;;8.60;86.11;101325.22;5030248;28;20068;-83
2022/10/10 00:19:04;;;;;;;11.50;7.23;;;;;;;8.59;86.22;101328.97;5029683;28;20155;-83
2022/10/10 00:21:29;;;;;;;10.67;7.20;;;;;;;8.53;86.31;101331.56;5030095;28;20041;-82
2022/10/10 00:23:54;;;;;;;12.93;7.70;;;;;;;8.60;86.39;101327.91;5030093;28;20057;-83
2022/10/10 00:26:20;;;;;;;9.87;7.13;;;;;;;8.52;86.47;101327.19;5029729;28;20040;-83
2022/10/10 00:28:46;;;;;;;10.20;7.40;;;;;;;8.44;86.77;101311.88;5028915;28;20024;-83
2022/10/10 00:31:11;;;;;;;9.67;7.40;;;;;;;8.48;87.03;101321.31;5030712;28;20673;-84
2022/10/10 00:33:37;;;;;;;11.83;7.50;;;;;;;8.44;87.21;101322.66;5030611;28;20037;-83
2022/10/10 00:36:03;;;;;;;11.37;7.23;;;;;;;8.32;87.15;101308.78;5030030;28;20033;-84
2022/10/10 00:38:28;;;;;;;9.73;7.67;;;;;;;8.40;87.45;101327.59;5030459;28;20033;-83
2022/10/10 00:40:55;;;;;;;11.97;7.70;;;;;;;8.36;87.59;101323.59;5029697;28;20107;-83
2022/10/10 00:43:22;;;;;;;10.23;7.77;;;;;;;8.34;87.94;101322.94;5030761;28;20380;-83
2022/10/10 00:45:48;;;;;;;11.57;7.83;;;;;;;8.30;87.77;101312.72;5030425;28;20033;-83
2022/10/10 00:48:26;;;;;;;11.37;7.90;;;;;;;8.27;88.22;101309.34;5030142;28;20037;-83
2022/10/10 00:50:55;;;;;;;14.87;8.07;;;;;;;8.19;88.40;101312.13;5029995;28;20040;-83
2022/10/10 00:53:26;;;;;;;14.03;8.00;;;;;;;8.13;88.74;101307.47;5030486;28;20040;-83
2022/10/10 00:55:52;;;;;;;10.97;7.63;;;;;;;8.16;88.85;101301.72;5030032;28;20040;-84
2022/10/10 00:58:20;;;;;;;11.57;7.67;;;;;;;8.13;88.82;101309.34;5029622;28;20028;-83
2022/10/10 01:00:45;;;;;;;12.63;8.20;;;;;;;8.09;89.29;101301.63;5004015;28;20044;-83
2022/10/10 01:03:11;;;;;;;12.03;8.00;;;;;;;8.08;89.26;101307.19;5003829;28;20045;-83
2022/10/10 01:05:37;;;;;;;12.17;7.87;;;;;;;8.06;89.43;101298.44;5029396;28;20048;-83
2022/10/10 01:08:05;;;;;;;10.13;7.73;;;;;;;8.00;89.88;101293.78;5030114;28;20056;-83
2022/10/10 01:10:39;;;;;;;15.07;8.23;;;;;;;8.02;90.11;101297.13;5030128;28;20044;-83
2022/10/10 01:13:16;;;;;;;9.87;7.77;;;;;;;7.97;90.07;101294.13;5029428;28;20037;-83
2022/10/10 01:15:56;;;;;;;12.67;8.40;;;;;;;7.96;90.25;101289.78;5030448;28;20072;-83
2022/10/10 01:18:29;;;;;;;11.93;7.90;;;;;;;7.93;90.41;101291.81;5029555;28;20045;-83
2022/10/10 01:21:13;;;;;;;10.17;8.07;;;;;;;7.96;90.92;101290.59;5028779;28;20065;-83
2022/10/10 01:24:13;;;;;;;12.95;8.20;;;;;;;7.93;90.63;101288.28;5011925;28;20044;-83
2022/10/10 01:26:59;;;;;;;9.97;8.17;;;;;;;7.92;90.68;101290.13;4945684;28;20090;-85
2022/10/10 01:29:28;;;;;;;12.13;8.25;;;;;;;7.89;90.89;101293.19;5006418;28;20078;-85
2022/10/10 01:31:58;;;;;;;12.10;8.60;;;;;;;7.86;91.18;101290.88;5029002;28;20476;-85
2022/10/10 01:34:29;;;;;;;11.03;8.43;;;;;;;7.83;91.19;101283.13;5029610;28;20128;-86
2022/10/10 01:37:05;;;;;;;12.17;8.33;;;;;;;7.76;91.85;101282.19;5029619;28;20135;-85
2022/10/10 01:40:06;;;;;;;11.10;8.27;;;;;;;7.65;92.32;101266.47;5029897;28;20037;-83
2022/10/10 01:43:02;;;;;;;12.70;8.50;;;;;;;7.82;92.14;101280.63;5022247;28;20061;-82
2022/10/10 01:45:30;;;;;;;11.27;8.93;;;;;;;7.79;92.19;101276.41;5019637;28;20056;-83
2022/10/10 01:47:59;;;;;;;10.93;8.27;;;;;;;7.77;92.15;101278.47;5028714;28;20382;-82
2022/10/10 01:50:26;;;;;;;15.37;8.93;;;;;;;7.70;92.75;101266.75;5029782;28;20033;-83
2022/10/10 01:53:17;;;;;;;11.57;8.93;;;;;;;7.81;92.69;101276.25;5028659;28;20037;-82
2022/10/10 01:55:53;;;;;;;11.20;8.77;;;;;;;7.73;92.42;101264.50;5029681;28;20033;-84
2022/10/10 01:58:37;;;;;;;10.67;8.47;;;;;;;7.74;92.83;101262.66;5029788;28;20032;-84
2022/10/10 02:01:36;;;;;;;12.97;8.80;;;;;;;7.76;92.93;101271.41;5029569;28;20149;-82
2022/10/10 02:04:23;;;;;;;13.70;8.30;;;;;;;7.73;92.81;101261.00;5027358;28;20138;-83
2022/10/10 02:06:56;;;;;;;14.63;8.90;;;;;;;7.72;93.05;101256.59;5029266;28;20059;-83
2022/10/10 02:09:30;;;;;;;13.63;9.47;;;;;;;7.71;92.96;101252.22;5030115;28;20174;-83
2022/10/10 02:11:58;;;;;;;12.90;8.73;;;;;;;7.64;93.32;101244.03;5029401;28;20570;-83
2022/10/10 02:14:29;;;;;;;12.43;8.43;;;;;;;7.59;93.24;101239.19;5027966;28;20373;-83
2022/10/10 02:16:59;;;;;;;11.33;8.53;;;;;;;7.63;93.33;101249.59;5032425;28;20194;-83
2022/10/10 02:19:26;;;;;;;12.70;8.80;;;;;;;7.62;93.59;101245.25;5033076;28;20495;-83
2022/10/10 02:21:53;;;;;;;12.47;9.13;;;;;;;7.58;93.66;101245.59;5032111;28;20786;-83
2022/10/10 02:24:21;;;;;;;13.87;9.00;;;;;;;7.52;93.86;101237.41;5032658;28;20496;-84
2022/10/10 02:27:02;;;;;;;11.57;9.00;;;;;;;7.48;94.27;101234.25;5024324;28;20481;-84
2022/10/10 02:29:34;;;;;;;13.03;8.60;;;;;;;7.55;94.36;101242.44;5033102;28;20036;-84
2022/10/10 02:32:05;;;;;;;12.73;8.93;;;;;;;7.50;94.46;101240.28;5032436;28;20538;-84
2022/10/10 02:34:43;;;;;;;12.40;9.23;;;;;;;7.51;94.65;101233.03;5032543;28;20029;-84
2022/10/10 02:37:12;;;;;;;13.50;9.63;;;;;;;7.51;94.79;101236.56;5033402;28;20520;-84
2022/10/10 02:39:43;;;;;;;11.90;8.73;;;;;;;7.48;94.93;101231.53;5032832;28;20602;-87
2022/10/10 02:42:13;;;;;;;13.27;9.03;;;;;;;7.46;95.05;101222.78;5032794;28;20048;-84
2022/10/10 02:44:40;;;;;;;12.80;9.00;;;;;;;7.47;95.12;101229.88;5032415;28;20639;-84
2022/10/10 02:47:05;;;;;;;11.40;9.33;;;;;;;7.44;94.92;101222.16;5031926;28;20236;-84
2022/10/10 02:49:33;;;;;;;12.83;9.03;;;;;;;7.41;95.24;101219.78;5032814;28;20045;-83
2022/10/10 02:51:59;;;;;;;14.27;9.13;;;;;;;7.41;95.42;101217.09;5031832;28;20041;-83
2022/10/10 02:54:24;;;;;;;15.03;9.60;;;;;;;7.38;95.45;101215.59;5006779;28;20029;-83
2022/10/10 02:56:50;;;;;;;12.20;9.17;;;;;;;7.35;95.76;101215.97;5032734;28;20068;-84
2022/10/10 02:59:15;;;;;;;10.60;9.33;;;;;;;7.37;96.27;101219.34;5032576;28;20385;-84
2022/10/10 03:01:41;;;;;;;14.07;9.63;;;;;;;7.35;96.33;101199.78;5032757;28;20047;-84
2022/10/10 03:04:06;;;;;;;12.97;9.03;;;;;;;7.33;96.21;101201.84;5031069;28;20108;-84
2022/10/10 03:06:32;;;;;;;12.50;9.37;;;;;;;7.34;96.52;101205.38;5032723;28;20465;-84
2022/10/10 03:08:57;;;;;;;13.33;9.40;;;;;;;7.34;96.66;101202.69;5031789;28;20033;-84
2022/10/10 03:11:23;;;;;;;13.80;9.23;;;;;;;7.28;96.95;101203.41;5032437;28;20071;-84
2022/10/10 03:13:48;;;;;;;13.43;9.30;;;;;;;7.31;96.83;101206.56;5031372;28;20381;-84
2022/10/10 03:16:14;;;;;;;12.40;8.83;;;;;;;7.28;97.07;101206.13;5032015;28;20068;-84
2022/10/10 03:18:39;;;;;;;12.57;9.13;;;;;;;7.29;97.18;101202.38;5032112;28;20124;-83
2022/10/10 03:21:05;;;;;;;13.03;9.70;;;;;;;7.29;97.18;101205.94;5031796;28;20112;-84
2022/10/10 03:23:31;;;;;;;14.50;9.70;;;;;;;7.28;97.40;101198.84;5031604;28;20644;-84
2022/10/10 03:25:57;;;;;;;12.90;8.80;;;;;;;7.28;97.42;101198.84;5031696;28;20040;-84
2022/10/10 03:28:22;;;;;;;14.63;9.60;;;;;;;7.25;97.87;101191.97;5006319;28;20049;-84
2022/10/10 03:30:48;;;;;;;14.13;9.30;;;;;;;7.26;97.58;101195.50;5031798;28;20044;-83
2022/10/10 03:33:13;;;;;;;14.60;9.67;;;;;;;7.23;97.70;101190.47;5031612;28;20086;-84
2022/10/10 03:35:39;;;;;;;13.30;9.33;;;;;;;7.27;97.65;101202.56;5031658;28;20043;-84
2022/10/10 03:38:05;;;;;;;13.47;8.70;;;;;;;7.25;98.15;101199.22;5031472;28;20502;-84
2022/10/10 03:40:31;;;;;;;13.40;9.40;;;;;;;7.22;98.11;101199.56;5031984;28;21180;-85
2022/10/10 03:42:56;;;;;;;11.57;8.70;;;;;;;7.23;97.77;101196.69;5031297;28;20119;-85
2022/10/10 03:45:22;;;;;;;12.43;9.23;;;;;;;7.21;97.97;101201.44;5031466;28;20038;-84
2022/10/10 03:47:48;;;;;;;13.20;9.30;;;;;;;7.19;98.24;101199.94;5031400;28;20067;-84
2022/10/10 03:50:14;;;;;;;13.10;9.60;;;;;;;7.17;98.38;101200.13;5031388;28;20156;-85
2022/10/10 03:52:39;;;;;;;14.10;9.70;;;;;;;7.18;99.23;101199.09;5032169;28;20487;-85
2022/10/10 03:55:05;;;;;;;14.03;9.53;;;;;;;7.23;99.20;101204.78;5006549;28;20064;-85
2022/10/10 03:57:30;;;;;;;14.37;9.43;;;;;;;7.24;99.47;101201.06;5004963;28;20041;-84
2022/10/10 03:59:56;;;;;;;14.07;9.60;;;;;;;7.31;99.43;101205.75;5031220;28;20048;-84
2022/10/10 04:02:21;;;;;;;15.87;9.37;;;;;;;7.31;99.17;101205.75;5030865;28;20048;-85
2022/10/10 04:04:46;;;;;;;15.23;10.13;;;;;;;7.33;99.58;101212.63;5031371;28;20041;-84
2022/10/10 04:07:12;;;;;;;15.27;9.93;;;;;;;7.31;99.71;101201.19;5031080;28;20132;-85
2022/10/10 04:09:37;;;;;;;15.67;9.23;;;;;;;7.27;100.00;101191.78;5030791;28;20032;-84
2022/10/10 04:12:03;;;;;;;13.57;9.60;;;;;;;7.30;99.79;101202.19;5030806;28;20033;-85
2022/10/10 04:14:28;;;;;;;18.17;9.80;;;;;;;7.30;99.84;101186.00;5012898;28;20604;-84
2022/10/10 04:16:54;;;;;;;17.13;9.57;;;;;;;7.33;100.00;101190.22;5030896;28;20040;-85
2022/10/10 04:19:19;;;;;;;15.83;9.80;;;;;;;7.31;99.91;101197.66;5030482;28;20037;-86
2022/10/10 04:21:44;;;;;;;15.17;9.83;;;;;;;7.24;100.00;101182.19;5031114;28;20033;-85
2022/10/10 04:24:10;;;;;;;18.17;9.73;;;;;;;7.29;100.00;101199.69;5030152;28;20057;-86
2022/10/10 04:26:36;;;;;;;14.93;9.90;;;;;;;7.25;100.00;101194.66;5031371;28;20401;-85
2022/10/10 04:29:02;;;;;;;16.13;9.67;;;;;;;7.26;100.00;101199.03;5030793;28;20044;-85
2022/10/10 04:31:27;;;;;;;14.73;9.70;;;;;;;7.18;99.96;101192.88;5031143;28;20469;-86
2022/10/10 04:33:53;;;;;;;16.30;9.77;;;;;;;7.18;100.00;101193.72;5030155;28;20040;-85
2022/10/10 04:36:18;;;;;;;16.27;9.97;;;;;;;7.20;100.00;101188.97;5031131;28;20432;-86
2022/10/10 04:38:43;;;;;;;16.23;10.10;;;;;;;7.18;100.00;101201.81;5030194;28;20500;-86
2022/10/10 04:41:09;;;;;;;15.83;9.60;;;;;;;7.23;100.00;101191.28;5004262;28;20094;-86
2022/10/10 04:43:34;;;;;;;15.37;9.80;;;;;;;7.19;100.00;101192.69;5030632;28;20050;-85
2022/10/10 04:46:00;;;;;;;12.47;9.70;;;;;;;7.19;100.00;101194.53;5030619;28;20476;-86
2022/10/10 04:48:25;;;;;;;15.23;9.63;;;;;;;7.13;100.00;101193.41;5030187;28;20151;-86
2022/10/10 04:50:56;;;;;;;13.73;9.43;;;;;;;7.12;100.00;101191.72;5030816;28;20127;-86
2022/10/10 04:53:22;;;;;;;16.73;10.30;;;;;;;7.13;100.00;101197.97;5030279;28;20121;-87
2022/10/10 04:55:47;;;;;;;13.60;9.37;;;;;;;7.08;100.00;101198.50;5030226;28;20481;-84
2022/10/10 04:58:13;;;;;;;12.67;9.57;;;;;;;7.10;100.00;101199.19;5029362;28;20039;-86
2022/10/10 05:00:39;;;;;;;18.70;9.63;;;;;;;7.09;100.00;101197.50;5030192;28;20532;-85
2022/10/10 05:03:05;;;;;;;14.93;9.63;;;;;;;7.05;100.00;101188.91;5029648;28;20040;-86
2022/10/10 05:05:30;;;;;;;17.40;10.27;;;;;;;7.00;100.00;101185.91;5029463;28;20039;-86
2022/10/10 05:07:56;;;;;;;16.90;9.90;;;;;;;7.02;100.00;101193.84;5029841;28;20037;-85
2022/10/10 05:10:22;;;;;;;14.37;10.10;;;;;;;7.01;100.00;101182.22;5005384;28;20033;-84
2022/10/10 05:12:48;;;;;;;15.67;9.57;;;;;;;7.00;100.00;101182.41;4978536;28;21159;-85
2022/10/10 05:15:13;;;;;;;12.10;9.23;;;;;;;6.91;100.00;101171.69;5029800;28;20674;-86
2022/10/10 05:17:39;;;;;;;14.97;10.07;;;;;;;6.95;100.00;101182.94;5004933;28;20107;-85
2022/10/10 05:20:05;;;;;;;14.27;10.10;;;;;;;6.91;100.00;101178.94;5029621;28;20045;-84
2022/10/10 05:22:30;;;;;;;14.10;9.77;;;;;;;6.96;100.00;101178.38;5030608;28;20084;-84
2022/10/10 05:24:58;;;;;;;12.83;9.30;;;;;;;6.93;100.00;101180.44;5029305;28;20052;-84
2022/10/10 05:27:23;;;;;;;14.10;9.87;;;;;;;6.87;100.00;101175.75;5030078;28;20142;-84
2022/10/10 05:29:48;;;;;;;14.90;9.73;;;;;;;6.90;100.00;101175.38;5029063;28;20172;-85
2022/10/10 05:32:14;;;;;;;13.93;9.63;;;;;;;6.90;100.00;101179.94;5028018;28;20052;-85
2022/10/10 05:34:39;;;;;;;15.43;10.00;;;;;;;6.90;100.00;101178.09;5029920;28;20038;-84
2022/10/10 05:37:05;;;;;;;15.23;9.83;;;;;;;6.87;100.00;101177.63;5004460;28;20052;-85
2022/10/10 05:39:30;;;;;;;20.10;10.33;;;;;;;6.96;100.00;101190.00;5029677;28;20029;-84
2022/10/10 05:41:55;;;;;;;15.87;10.10;;;;;;;6.98;100.00;101189.84;5028877;28;20469;-84
2022/10/10 05:44:20;;;;;;;18.00;10.10;;;;;;;6.99;100.00;101186.09;5029825;28;20073;-84
2022/10/10 05:46:46;;;;;;;17.30;10.13;;;;;;;6.98;100.00;101187.97;5028931;28;20048;-84
2022/10/10 05:49:11;;;;;;;16.10;10.10;;;;;;;6.99;100.00;101186.97;5029907;28;20037;-84
2022/10/10 05:51:37;;;;;;;17.00;10.10;;;;;;;7.02;100.00;101188.47;5009993;28;20037;-84
2022/10/10 05:54:03;;;;;;;14.63;10.10;;;;;;;7.00;100.00;101188.63;5007395;28;20024;-83
2022/10/10 05:56:29;;;;;;;16.50;10.23;;;;;;;7.01;100.00;101181.38;5008864;28;20552;-83
2022/10/10 05:58:54;;;;;;;15.90;9.67;;;;;;;7.05;100.00;101190.78;5032850;28;20041;-83
2022/10/10 06:01:19;;;;;;;14.77;9.73;;;;;;;7.04;100.00;101191.78;5033676;28;20051;-84
2022/10/10 06:03:51;;;;;;;16.20;9.60;;;;;;;7.03;100.00;101190.97;5033379;28;20804;-83
2022/10/10 06:06:17;;;;;;;17.40;9.57;;;;;;;7.10;100.00;101180.31;5033083;28;20382;-84
2022/10/10 06:08:42;;;;;;;16.17;9.70;;;;;;;7.14;100.00;101194.25;5033438;28;20698;-84
2022/10/10 06:11:09;;;;;;;14.03;8.83;;;;;;;7.22;100.00;101189.63;5033246;28;20477;-83
2022/10/10 06:13:36;;;;;;;14.63;9.27;;;;;;;7.26;100.00;101190.94;5033604;28;20036;-83
2022/10/10 06:16:02;;;;;;;15.13;9.20;;;;;;;7.29;100.00;101189.75;5033235;28;21749;-84
2022/10/10 06:18:27;;;;;;;14.03;9.03;;;;;;;7.31;100.00;101189.56;5033834;28;20029;-83
2022/10/10 06:20:53;;;;;;;15.60;8.70;;;;;;;7.27;100.00;101178.31;5032817;28;20119;-83
2022/10/10 06:23:19;;;;;;;12.73;8.17;;;;;;;7.43;100.00;101202.41;5033731;28;20048;-83
2022/10/10 06:25:45;;;;;;;13.40;8.87;;;;;;;7.54;100.00;101194.91;5032779;28;20044;-84
2022/10/10 06:28:11;;;;;;;15.27;8.80;;;;;;;7.53;100.00;101195.94;5032445;28;20033;-84
2022/10/10 06:30:43;;;;;;;12.03;8.37;;;;;;;7.63;100.00;101201.06;5032756;28;20039;-83
2022/10/10 06:33:11;;;;;;;15.87;8.93;;;;;;;7.68;100.00;101204.06;5032957;28;20041;-83
2022/10/10 06:35:41;;;;;;;15.00;8.43;;;;;;;7.73;100.00;101210.56;5032101;28;20437;-83
2022/10/10 06:38:07;;;;;;;15.47;8.50;;;;;;;7.80;100.00;101207.97;5010526;28;20049;-84
2022/10/10 06:40:33;;;;;;;14.23;8.37;;;;;;;7.83;100.00;101213.00;5031368;28;20094;-83
2022/10/10 06:42:58;;;;;;;15.63;8.40;;;;;;;7.87;100.00;101211.59;5047126;28;20030;-84
2022/10/10 06:45:24;;;;;;;12.30;8.50;;;;;;;7.89;100.00;101206.03;5047324;28;20473;-84
2022/10/10 06:47:49;;;;;;;11.47;7.90;;;;;;;7.99;100.00;101205.75;5052699;28;20036;-84
2022/10/10 06:50:15;;;;;;;13.70;8.10;;;;;;;8.01;100.00;101209.09;5022426;28;20132;-84
2022/10/10 06:52:40;;;;;;;15.47;8.17;;;;;;;8.16;100.00;101218.03;5053758;28;20017;-85
2022/10/10 06:55:06;;;;;;;11.37;8.10;;;;;;;8.21;100.00;101210.19;5056489;28;20112;-84
2022/10/10 06:57:32;;;;;;;14.63;8.40;;;;;;;8.30;100.00;101212.81;5056354;28;20032;-84
2022/10/10 06:59:57;;;;;;;13.40;8.47;;;;;;;8.37;100.00;101219.97;5052534;28;20025;-84
2022/10/10 07:02:23;;;;;;;12.97;8.37;;;;;;;8.42;100.00;101222.13;5044455;28;20073;-84
2022/10/10 07:04:49;;;;;;;14.53;8.30;;;;;;;8.47;100.00;101217.00;5034488;28;20056;-84
2022/10/10 07:07:14;;;;;;;12.73;7.50;;;;;;;8.62;100.00;101219.66;5039350;28;20029;-86
2022/10/10 07:09:40;;;;;;;12.83;7.57;;;;;;;8.73;100.00;101219.19;5045028;28;20022;-84
2022/10/10 07:12:05;;;;;;;13.93;8.20;;;;;;;8.85;100.00;101222.22;5017364;28;20064;-83
2022/10/10 07:14:30;;;;;;;12.80;7.83;;;;;;;8.97;100.00;101219.84;5014188;28;20030;-85
2022/10/10 07:16:56;;;;;;;13.93;7.80;;;;;;;9.11;100.00;101221.69;5043013;28;20021;-85
2022/10/10 07:19:23;;;;;;;12.57;7.30;;;;;;;9.19;100.00;101215.28;5038535;28;20036;-84
2022/10/10 07:21:49;;;;;;;13.67;7.53;;;;;;;9.34;99.34;101215.22;5043897;28;20103;-84
2022/10/10 07:24:15;;;;;;;13.90;7.87;;;;;;;9.48;98.75;101221.59;5038317;28;20465;-84
2022/10/10 07:26:40;;;;;;;13.63;7.73;;;;;;;9.60;98.16;101230.84;5050328;28;20044;-85
2022/10/10 07:29:05;;;;;;;14.83;8.00;;;;;;;9.80;98.08;101239.13;5039939;28;20029;-84
2022/10/10 07:31:31;;;;;;;12.23;7.67;;;;;;;9.85;97.26;101226.88;5044465;28;20033;-86
2022/10/10 07:33:56;;;;;;;15.87;8.30;;;;;;;10.14;96.86;101233.91;5041471;28;20033;-84
2022/10/10 07:39:44;;;;;;;16.40;8.60;;;;;;;10.72;95.85;101243.59;5039921;28;20100;-90
2022/10/10 07:42:09;;;;;;;16.67;8.43;;;;;;;10.89;94.67;101239.50;5038870;28;20432;-91
2022/10/10 07:44:34;;;;;;;13.50;8.17;;;;;;;11.20;94.49;101239.97;5039435;28;20037;-92
2022/10/10 07:47:00;;;;;;;13.17;7.50;;;;;;;11.47;93.23;101252.50;5039167;28;20041;-89
2022/10/10 07:49:25;;;;;;;13.83;8.00;;;;;;;11.75;91.07;101253.34;5007344;28;20095;-93
2022/10/10 07:51:50;;;;;;;14.57;7.67;;;;;;;11.98;89.58;101258.34;5000406;28;20073;-93
2022/10/10 07:54:16;;;;;;;14.07;6.97;;;;;;;12.07;89.87;101265.25;5051661;28;20025;-88
2022/10/10 07:56:41;;;;;;;13.07;7.17;;;;;;;12.21;88.22;101273.38;5020068;28;20053;-90
2022/10/10 07:59:06;;;;;;;10.33;6.23;;;;;;;12.29;88.13;101274.00;5046759;28;20025;-89
2022/10/10 08:01:32;;;;;;;14.40;6.00;;;;;;;12.44;87.08;101262.03;5036241;28;20029;-90
2022/10/10 08:03:57;;;;;;;12.60;5.93;;;;;;;12.57;86.46;101272.03;5052253;28;20484;-91
2022/10/10 08:06:22;;;;;;;11.17;6.00;;;;;;;12.71;86.21;101270.91;5047621;28;20381;-90
2022/10/10 08:08:48;;;;;;;13.97;5.70;;;;;;;12.82;85.77;101264.81;5035226;28;20037;-90
2022/10/10 08:11:14;;;;;;;11.00;5.87;;;;;;;13.04;85.18;101271.81;5035651;28;20018;-89
2022/10/10 08:13:41;;;;;;;13.67;6.10;;;;;;;13.14;83.94;101269.47;5040775;28;20029;-89
2022/10/10 08:16:06;;;;;;;12.03;5.90;;;;;;;13.48;83.36;101279.09;5010631;28;20397;-89
2022/10/10 08:18:31;;;;;;;12.13;6.00;;;;;;;13.56;82.11;101269.81;5049955;28;20036;-90
2022/10/10 08:20:59;;;;;;;12.13;6.20;;;;;;;13.68;81.38;101267.19;5053927;28;20025;-90
2022/10/10 08:23:25;;;;;;;11.07;5.37;;;;;;;13.91;80.98;101272.06;5052650;28;20033;-88
2022/10/10 08:25:50;;;;;;;13.40;6.20;;;;;;;13.87;80.23;101270.84;5049309;28;20081;-91
2022/10/10 08:28:15;;;;;;;11.97;5.63;;;;;;;14.06;79.23;101270.84;5050790;28;20032;-90
2022/10/10 08:30:41;;;;;;;12.20;5.80;;;;;;;14.29;78.65;101262.88;5040146;28;20079;-90
2022/10/10 08:33:06;;;;;;;10.60;5.50;;;;;;;14.28;77.26;101263.91;5051487;28;20079;-92
2022/10/10 08:35:36;;;;;;;9.90;5.67;;;;;;;14.16;77.39;101271.19;5043787;28;20509;-89
2022/10/10 08:38:02;;;;;;;10.87;5.80;;;;;;;14.19;78.44;101273.44;5039961;28;20018;-89
2022/10/10 08:40:27;;;;;;;10.43;5.93;;;;;;;14.04;78.79;101270.25;5048988;28;21426;-91
2022/10/10 08:42:55;;;;;;;13.77;5.63;;;;;;;14.06;77.91;101274.44;5049512;28;20025;-89
2022/10/10 08:45:25;;;;;;;11.90;6.13;;;;;;;14.27;78.86;101278.59;5034954;28;20037;-90
2022/10/10 08:47:58;;;;;;;13.03;5.70;;;;;;;14.46;78.26;101279.44;5034356;28;20465;-89
2022/10/10 08:50:29;;;;;;;12.57;6.05;;;;;;;14.65;76.99;101272.13;5051780;28;20024;-90
2022/10/10 08:53:05;;;;;;;12.07;5.90;;;;;;;14.80;76.00;101274.44;5026731;28;20033;-89
2022/10/10 08:55:57;;;;;;;10.77;5.60;;;;;;;15.10;77.48;101289.19;5034821;28;20029;-87
2022/10/10 08:58:32;;;;;;;11.07;6.17;;;;;;;15.22;74.40;101287.31;5032287;28;20025;-89
2022/10/10 09:01:19;;;;;;;10.80;5.90;;;;;;;15.41;74.48;101284.50;5052627;28;20013;-90
2022/10/10 09:07:24;;;;;;;11.43;5.87;;;;;;;15.75;73.71;101282.09;5053256;28;20071;-90
2022/10/10 09:10:17;;;;;;;14.52;5.60;;;;;;;16.07;73.43;101265.41;5039462;28;20033;-89
2022/10/10 09:12:42;;;;;;;13.30;5.50;;;;;;;16.02;71.16;101285.25;5042915;28;20487;-89
2022/10/10 09:15:19;;;;;;;9.33;5.50;;;;;;;16.12;72.21;101290.13;5048886;28;20016;-90
2022/10/10 09:17:48;;;;;;;10.53;5.43;;;;;;;16.13;71.68;101291.75;5037887;28;20021;-87
2022/10/10 09:20:42;;;;;;;11.27;5.57;;;;;;;16.40;71.67;101292.13;5047328;28;20103;-88
2022/10/10 09:23:22;;;;;;;10.75;5.22;;;;;;;16.35;72.74;101294.75;5041325;28;20024;-88
2022/10/10 09:25:52;;;;;;;11.13;5.50;;;;;;;16.50;71.99;101291.50;5036944;28;20481;-90
2022/10/10 09:28:42;;;;;;;10.27;5.13;;;;;;;16.77;70.25;101290.94;5033573;28;20032;-91
2022/10/10 09:31:22;;;;;;;11.40;5.17;;;;;;;16.76;68.90;101297.50;5038650;28;20013;-88
2022/10/10 09:33:57;;;;;;;9.97;5.20;;;;;;;16.83;68.30;101295.47;5053003;28;20079;-90
2022/10/10 09:36:30;;;;;;;12.80;5.60;;;;;;;16.74;67.10;101303.25;5037074;28;20395;-88
2022/10/10 09:39:02;;;;;;;10.87;5.30;;;;;;;16.77;68.98;101296.41;5032516;28;20072;-88
2022/10/10 09:41:41;;;;;;;9.70;5.13;;;;;;;16.78;68.99;101303.56;5033779;28;20101;-88
2022/10/10 09:44:11;;;;;;;10.97;4.90;;;;;;;16.81;67.81;101314.00;5047266;28;20070;-89
2022/10/10 09:46:37;;;;;;;9.30;4.90;;;;;;;16.74;68.11;101318.81;5043436;28;20036;-87
2022/10/10 09:49:03;;;;;;;12.23;5.40;;;;;;;16.74;67.66;101316.91;5050074;28;20037;-87
2022/10/10 09:51:31;;;;;;;10.70;5.40;;;;;;;16.74;67.35;101318.81;5038111;28;20071;-88
2022/10/10 09:53:57;;;;;;;12.03;4.67;;;;;;;16.68;67.34;101313.22;5032911;28;20026;-88
2022/10/10 09:56:26;;;;;;;9.03;4.60;;;;;;;16.55;68.66;101321.72;5032212;28;20164;-88
2022/10/10 09:58:54;;;;;;;12.07;4.70;;;;;;;16.55;68.51;101332.66;5040319;28;20050;-87
2022/10/10 10:01:33;;;;;;;12.63;5.07;;;;;;;16.45;69.95;101316.00;5050792;28;20044;-87
2022/10/10 10:04:16;;;;;;;11.77;4.87;;;;;;;16.58;69.62;101331.31;5038281;28;20469;-89
2022/10/10 10:06:51;;;;;;;9.67;4.40;;;;;;;16.30;70.08;101330.97;5043751;28;20477;-88
2022/10/10 10:09:19;;;;;;;8.57;4.60;;;;;;;16.19;69.75;101329.91;5050058;28;20029;-87
2022/10/10 10:11:47;;;;;;;11.13;4.40;;;;;;;16.27;68.89;101330.66;5034254;28;20021;-87
2022/10/10 10:14:28;;;;;;;10.70;4.53;;;;;;;16.21;71.82;101335.16;5033336;28;20051;-87
2022/10/10 10:17:03;;;;;;;10.57;4.73;;;;;;;16.07;70.91;101320.06;5044031;28;20096;-88
2022/10/10 10:19:35;;;;;;;11.20;4.80;;;;;;;15.95;71.97;101317.31;5038295;28;20086;-87
2022/10/10 10:22:02;;;;;;;9.53;5.03;;;;;;;16.00;71.18;101326.47;5046906;28;20036;-88
2022/10/10 10:24:36;;;;;;;13.13;5.10;;;;;;;15.98;71.98;101334.06;5051504;28;20108;-87
2022/10/10 10:27:20;;;;;;;12.90;5.38;;;;;;;16.02;72.70;101327.06;5046845;28;20515;-87
2022/10/10 10:29:52;;;;;;;14.18;6.15;;;;;;;15.97;71.78;101337.88;5035502;28;20017;-87
2022/10/10 10:32:32;;;;;;;9.33;5.10;;;;;;;16.06;72.16;101330.19;5023571;28;20032;-88
2022/10/10 10:35:04;;;;;;;10.17;4.70;;;;;;;16.23;72.76;101332.19;5047019;28;20472;-88
2022/10/10 10:38:05;;;;;;;10.60;4.40;;;;;;;16.47;71.36;101333.84;5034329;28;20064;-87
2022/10/10 10:40:41;;;;;;;8.57;4.37;;;;;;;16.47;70.76;101347.53;5051732;28;20029;-88
2022/10/10 10:43:39;;;;;;;8.43;4.20;;;;;;;16.63;70.59;101347.84;5037580;28;20041;-87
2022/10/10 10:46:18;;;;;;;11.27;4.70;;;;;;;16.56;69.76;101326.09;5024741;28;20017;-88
2022/10/10 10:49:13;;;;;;;8.83;4.33;;;;;;;16.73;70.09;101345.34;5051327;28;20017;-88
2022/10/10 10:51:45;;;;;;;9.13;4.47;;;;;;;16.71;69.51;101342.00;5012946;28;20052;-87
2022/10/10 10:54:10;;;;;;;11.27;4.40;;;;;;;16.66;68.47;101350.94;5043507;28;20482;-88
2022/10/10 10:56:57;;;;;;;12.03;4.60;;;;;;;16.71;70.57;101369.38;5031130;28;20040;-87
2022/10/10 10:59:42;;;;;;;11.17;4.57;;;;;;;16.76;70.46;101372.22;5036013;28;20033;-88
2022/10/10 11:02:07;;;;;;;12.63;4.93;;;;;;;16.72;69.25;101368.28;5029345;28;20009;-88
2022/10/10 11:04:52;;;;;;;11.20;4.53;;;;;;;17.04;69.48;101378.88;5035328;28;20056;-89
2022/10/10 11:07:21;;;;;;;10.40;4.50;;;;;;;17.10;70.56;101374.31;5039743;28;21484;-88
2022/10/10 11:09:55;;;;;;;10.93;4.70;;;;;;;17.04;68.69;101367.91;5039271;28;20056;-87
2022/10/10 11:12:41;;;;;;;12.48;4.53;;;;;;;17.11;68.73;101373.22;5050202;28;20072;-88
2022/10/10 11:15:25;;;;;;;12.00;4.70;;;;;;;17.13;68.64;101380.13;5045277;28;20021;-88
2022/10/10 11:18:24;;;;;;;11.27;4.70;;;;;;;17.03;69.10;101378.00;5017243;28;20083;-87
2022/10/10 11:21:14;;;;;;;9.70;5.03;;;;;;;16.88;68.42;101388.63;5002430;28;20045;-87
2022/10/10 11:24:09;;;;;;;12.73;4.80;;;;;;;17.03;69.76;101388.97;5029333;28;20037;-86
2022/10/10 11:26:39;;;;;;;8.60;4.40;;;;;;;16.98;69.45;101386.13;5044069;28;20037;-87
2022/10/10 11:29:17;;;;;;;12.97;4.77;;;;;;;17.04;70.05;101396.13;5016885;28;20488;-87
2022/10/10 11:31:47;;;;;;;12.50;4.50;;;;;;;17.08;69.61;101388.25;5016288;28;20084;-87
2022/10/10 11:34:26;;;;;;;8.33;4.73;;;;;;;16.94;68.75;101368.50;5015894;28;20029;-85
2022/10/10 11:36:55;;;;;;;12.47;4.80;;;;;;;16.97;68.95;101372.69;5048108;28;20387;-87
2022/10/10 11:39:32;;;;;;;11.50;5.30;;;;;;;17.00;69.10;101386.72;5020958;28;20053;-86
2022/10/10 11:42:15;;;;;;;9.60;4.43;;;;;;;17.03;70.50;101380.75;5042053;28;20059;-87